This is the latest recevied weather packets stored in our database for station/object KE7JVX-3. If no packets are shown the sender has not sent any weather packets the latest 1 day(s).
| Time | Temp. | Humidity | Pressure | Rain* | Wind** | Luminosity | Snow |
|---|---|---|---|---|---|---|---|
| 1778029977 | 3.33° C | 59% | 1006.8 hPa | 0 mm | - | - | - |
| 1778029767 | 3.33° C | 59% | 1006.8 hPa | 0 mm | - | - | - |
| 1778029348 | 3.33° C | 59% | 1006.8 hPa | 0 mm | - | - | - |
| 1778029167 | 3.33° C | 59% | 1006.8 hPa | 0 mm | - | - | - |
| 1778028567 | 3.33° C | 60% | 1006.7 hPa | 0 mm | - | - | - |
| 1778027967 | 3.33° C | 62% | 1006.7 hPa | 0 mm | - | - | - |
| 1778027367 | 3.33° C | 63% | 1006.7 hPa | 0 mm | - | - | - |
| 1778026767 | 3.33° C | 65% | 1006.6 hPa | 0 mm | - | - | - |
| 1778023167 | 3.33° C | 53% | 1006.3 hPa | 0 mm | - | - | - |
| 1778021967 | 3.89° C | 50% | 1006.1 hPa | 0 mm | - | - | - |
| 1778021370 | 5° C | 52% | 1006 hPa | 0 mm | - | - | - |
| 1778020767 | 4.44° C | 53% | 1006.1 hPa | 0 mm | - | - | - |
| 1778020167 | 3.89° C | 56% | 1006.2 hPa | 0 mm | - | - | - |
| 1778019567 | 3.33° C | 67% | 1006.2 hPa | 0 mm | - | - | - |
| 1778018967 | 2.78° C | 76% | 1006.4 hPa | 0 mm | - | - | - |
| 1778017767 | 2.78° C | 79% | 1006.5 hPa | 0 mm | - | - | - |
| 1778017167 | 2.22° C | 79% | 1006.6 hPa | 0 mm | - | - | - |
| 1778015367 | 2.22° C | 79% | 1006.8 hPa | 0 mm | - | - | - |
| 1778014167 | 2.22° C | 79% | 1006.8 hPa | 0 mm | - | - | - |
| 1778012968 | 2.78° C | 79% | 1006.9 hPa | 0 mm | - | - | - |
| 1778009367 | 2.22° C | 79% | 1006.9 hPa | 0 mm | - | - | - |
| 1778008767 | 2.22° C | 79% | 1007.2 hPa | 0 mm | - | - | - |
* Rain latest hour (hover to see other rain measurements)
** Current wind speed in m/s (hover to see current wind gust speed)